Time;durP1;ratioP1;P1;durP2;ratioP2;P2;SDS_P1;SDS_P2;PMS_P1;PMS_P2;Temp;Humidity;BMP_temperature;BMP_pressure;BME280_temperature;BME280_humidity;BME280_pressure;Samples;Min_cycle;Max_cycle;Signal;HPM_P1;HPM_P2
2021/07/15 00:00:57;;;;;;;;;;;;;;;25.90;48.76;100732.84;5016885;27;95988;-87
2021/07/15 00:03:26;;;;;;;;;;;;;;;25.96;48.55;100716.81;5004284;28;96135;-88
2021/07/15 00:05:55;;;;;;;;;;;;;;;25.85;48.79;100718.91;5021232;28;99294;-88
2021/07/15 00:08:25;;;;;;;;;;;;;;;25.87;48.96;100730.41;5009110;28;99243;-90
2021/07/15 00:13:35;;;;;;;;;;;;;;;25.79;49.91;100742.88;5007982;28;96734;-89
2021/07/15 00:16:03;;;;;;;;;;;;;;;25.61;50.56;100731.16;4991751;28;97933;-88
2021/07/15 00:18:30;;;;;;;;;;;;;;;25.72;49.14;100735.53;5009037;28;98881;-90
2021/07/15 00:21:05;;;;;;;;;;;;;;;25.64;49.80;100733.56;5008364;28;96721;-90
2021/07/15 00:23:32;;;;;;;;;;;;;;;25.68;50.54;100739.53;5000136;28;96611;-88
2021/07/15 00:28:43;;;;;;;;;;;;;;;25.64;50.85;100730.88;4996465;28;98575;-89
2021/07/15 00:31:10;;;;;;;;;;;;;;;25.39;51.59;100727.00;5008297;28;97012;-89
2021/07/15 00:33:37;;;;;;;;;;;;;;;25.28;51.65;100721.75;5009933;28;96827;-89
2021/07/15 00:36:05;;;;;;;;;;;;;;;25.22;51.30;100733.16;5011258;28;98152;-90
2021/07/15 00:44:10;;;;;;;;;;;;;;;25.55;50.39;100733.59;5015551;28;96638;-90
2021/07/15 00:46:37;;;;;;;;;;;;;;;25.36;51.34;100745.34;5010931;28;99682;-92
2021/07/15 00:49:04;;;;;;;;;;;;;;;25.12;52.06;100754.00;5009171;28;97754;-92
2021/07/15 00:51:38;;;;;;;;;;;;;;;25.06;52.59;100742.94;5010826;28;96519;-91
2021/07/15 00:56:46;;;;;;;;;;;;;;;24.90;52.73;100749.78;5020313;28;98764;-88
2021/07/15 00:59:15;;;;;;;;;;;;;;;24.85;53.23;100757.47;5020976;28;99462;-90
2021/07/15 01:01:44;;;;;;;;;;;;;;;24.77;53.34;100769.97;5016015;28;96098;-89
2021/07/15 01:04:13;;;;;;;;;;;;;;;24.61;54.16;100776.00;5013450;28;96004;-86
2021/07/15 01:06:39;;;;;;;;;;;;;;;24.60;54.29;100783.25;5013091;28;99545;-88
2021/07/15 01:09:06;;;;;;;;;;;;;;;24.54;54.85;100783.81;5012341;28;96833;-88
2021/07/15 01:14:22;;;;;;;;;;;;;;;24.62;54.66;100791.19;5016664;28;96639;-84
2021/07/15 01:16:57;;;;;;;;;;;;;;;24.62;54.04;100781.22;5017119;28;98231;-90
2021/07/15 01:19:56;;;;;;;;;;;;;;;24.67;54.14;100782.66;5003723;28;100427;-89
2021/07/15 01:22:25;;;;;;;;;;;;;;;24.65;53.30;100787.34;5020349;28;98454;-89
2021/07/15 01:25:04;;;;;;;;;;;;;;;24.87;52.09;100789.75;5017832;28;96799;-87
2021/07/15 01:27:42;;;;;;;;;;;;;;;24.90;51.81;100798.44;5016823;28;98945;-87
2021/07/15 01:30:12;;;;;;;;;;;;;;;24.83;52.47;100786.47;5015005;28;99487;-87
2021/07/15 01:32:49;;;;;;;;;;;;;;;24.67;52.21;100766.47;5016350;28;96482;-88
2021/07/15 01:35:18;;;;;;;;;;;;;;;24.51;52.34;100748.13;5021662;28;96553;-86
2021/07/15 01:37:50;;;;;;;;;;;;;;;24.61;52.11;100740.88;5022071;28;98080;-86
2021/07/15 01:40:19;;;;;;;;;;;;;;;24.37;52.18;100737.75;5020890;28;98315;-87
2021/07/15 01:42:49;;;;;;;;;;;;;;;24.77;50.99;100741.13;5020729;28;96469;-87
2021/07/15 01:45:18;;;;;;;;;;;;;;;24.66;50.90;100745.84;4997370;28;96575;-87
2021/07/15 01:47:45;;;;;;;;;;;;;;;24.28;51.54;100744.88;5015960;28;99229;-88
2021/07/15 01:50:12;;;;;;;;;;;;;;;24.57;50.83;100747.53;5000742;28;98773;-88
2021/07/15 01:52:40;;;;;;;;;;;;;;;24.74;50.57;100749.53;5017555;28;95908;-88
2021/07/15 01:55:07;;;;;;;;;;;;;;;24.83;50.12;100743.22;5018255;28;96711;-87
2021/07/15 01:57:37;;;;;;;;;;;;;;;24.31;51.22;100739.19;5021083;28;97100;-88
2021/07/15 02:00:07;;;;;;;;;;;;;;;24.69;50.46;100732.88;5008742;28;98946;-89
2021/07/15 02:02:36;;;;;;;;;;;;;;;24.77;50.03;100738.41;5010340;28;96676;-89
2021/07/15 02:05:04;;;;;;;;;;;;;;;24.77;50.07;100735.72;5009758;28;96827;-88
2021/07/15 02:07:34;;;;;;;;;;;;;;;24.80;50.12;100743.53;5004154;28;98886;-88
2021/07/15 02:10:02;;;;;;;;;;;;;;;24.87;50.36;100741.97;5004990;28;97564;-88
2021/07/15 02:12:31;;;;;;;;;;;;;;;24.76;49.78;100752.91;5012375;28;96572;-88
2021/07/15 02:15:02;;;;;;;;;;;;;;;24.39;50.75;100749.28;4988274;28;96850;-88
2021/07/15 02:17:29;;;;;;;;;;;;;;;24.69;49.94;100746.38;5009239;28;99334;-88
2021/07/15 02:20:17;;;;;;;;;;;;;;;24.76;49.87;100743.97;5007053;28;98653;-87
2021/07/15 02:22:46;;;;;;;;;;;;;;;24.60;50.35;100745.44;4992762;28;96711;-88
2021/07/15 02:25:13;;;;;;;;;;;;;;;24.56;50.99;100735.03;5005036;28;97092;-88
2021/07/15 02:27:40;;;;;;;;;;;;;;;24.74;50.42;100737.88;5005543;28;98233;-88
2021/07/15 02:30:11;;;;;;;;;;;;;;;24.67;50.51;100737.59;5004590;28;99205;-87
2021/07/15 02:32:38;;;;;;;;;;;;;;;24.80;50.23;100738.13;5005893;28;96831;-89
2021/07/15 02:35:08;;;;;;;;;;;;;;;24.55;50.85;100736.03;4997914;28;96888;-87
2021/07/15 02:37:37;;;;;;;;;;;;;;;24.54;50.90;100729.78;4999916;28;99651;-88
2021/07/15 02:40:07;;;;;;;;;;;;;;;24.75;50.64;100731.44;4992393;28;98345;-89
2021/07/15 02:42:35;;;;;;;;;;;;;;;24.23;51.71;100742.59;4985993;28;96651;-86
2021/07/15 02:45:01;;;;;;;;;;;;;;;24.19;52.05;100749.28;5003362;28;96980;-87
2021/07/15 02:47:36;;;;;;;;;;;;;;;24.49;51.47;100758.22;5006023;28;100025;-86
2021/07/15 02:50:06;;;;;;;;;;;;;;;24.58;51.37;100755.50;5006101;28;97101;-86
2021/07/15 02:52:33;;;;;;;;;;;;;;;24.54;51.62;100769.47;4990847;28;96816;-87
2021/07/15 02:55:00;;;;;;;;;;;;;;;23.98;52.94;100756.59;5002199;28;96830;-86
2021/07/15 02:57:30;;;;;;;;;;;;;;;24.20;52.70;100772.59;4986558;28;98067;-87
2021/07/15 03:00:06;;;;;;;;;;;;;;;23.95;52.85;100767.69;4988517;28;97841;-88
2021/07/15 03:02:33;;;;;;;;;;;;;;;24.33;51.94;100766.03;5021667;28;96514;-87
2021/07/15 03:05:01;;;;;;;;;;;;;;;24.25;52.04;100769.44;5020104;28;98142;-84
2021/07/15 03:07:32;;;;;;;;;;;;;;;23.84;53.23;100759.69;5022411;28;97069;-84
2021/07/15 03:10:01;;;;;;;;;;;;;;;23.68;54.37;100767.50;5018792;28;99894;-87
2021/07/15 03:12:32;;;;;;;;;;;;;;;24.00;53.12;100769.97;5021924;28;95962;-87
2021/07/15 03:14:59;;;;;;;;;;;;;;;24.16;52.92;100763.00;5003382;28;96332;-86
2021/07/15 03:17:27;;;;;;;;;;;;;;;23.95;53.54;100765.00;5019807;28;99104;-81
2021/07/15 03:19:55;;;;;;;;;;;;;;;23.94;53.54;100766.00;5021420;28;99367;-85
2021/07/15 03:22:24;;;;;;;;;;;;;;;23.87;54.07;100767.53;5022767;28;95865;-87
2021/07/15 03:24:53;;;;;;;;;;;;;;;23.96;53.88;100772.06;5015529;28;96009;-86
2021/07/15 03:27:20;;;;;;;;;;;;;;;24.23;53.07;100776.84;5021203;28;98669;-87
2021/07/15 03:29:54;;;;;;;;;;;;;;;24.14;53.37;100783.91;5002251;28;98981;-87
2021/07/15 03:32:22;;;;;;;;;;;;;;;24.32;53.00;100780.53;5012076;28;96630;-87
2021/07/15 03:34:49;;;;;;;;;;;;;;;24.17;53.32;100770.13;5002656;28;96860;-87
2021/07/15 03:37:16;;;;;;;;;;;;;;;24.05;53.54;100765.00;5002424;28;99308;-87
2021/07/15 03:39:45;;;;;;;;;;;;;;;24.17;53.20;100771.97;5001835;28;100961;-86
2021/07/15 03:42:12;;;;;;;;;;;;;;;24.09;53.17;100779.94;5004719;28;96998;-87
2021/07/15 03:44:40;;;;;;;;;;;;;;;24.20;52.99;100774.44;4985254;28;96983;-87
2021/07/15 03:47:08;;;;;;;;;;;;;;;24.30;52.88;100766.31;5002084;28;101607;-86
2021/07/15 03:49:35;;;;;;;;;;;;;;;24.20;52.91;100763.63;4986467;28;97612;-87
2021/07/15 03:52:01;;;;;;;;;;;;;;;23.88;54.00;100757.59;4996397;28;96720;-87
2021/07/15 03:54:33;;;;;;;;;;;;;;;23.86;53.74;100757.72;5002213;28;97392;-87
2021/07/15 03:57:04;;;;;;;;;;;;;;;23.91;53.41;100763.56;4987454;28;100284;-87
2021/07/15 03:59:32;;;;;;;;;;;;;;;23.87;53.71;100764.84;4995170;28;98568;-86
2021/07/15 04:02:04;;;;;;;;;;;;;;;24.16;52.62;100763.00;5002400;28;96967;-87
2021/07/15 04:04:32;;;;;;;;;;;;;;;24.33;52.40;100757.94;4996240;28;97326;-87
2021/07/15 04:07:01;;;;;;;;;;;;;;;23.95;53.20;100753.34;5006103;28;99504;-88
2021/07/15 04:12:09;;;;;;;;;;;;;;;24.41;52.06;100772.44;5004186;28;96873;-87
2021/07/15 04:14:48;;;;;;;;;;;;;;;24.40;52.28;100773.44;5006662;28;96969;-88
2021/07/15 04:20:05;;;;;;;;;;;;;;;23.95;53.46;100778.50;4997321;28;96522;-88
2021/07/15 04:22:33;;;;;;;;;;;;;;;24.18;52.70;100781.78;5003735;28;96590;-88
2021/07/15 04:27:43;;;;;;;;;;;;;;;24.43;52.17;100783.09;5016533;28;98404;-87
2021/07/15 04:30:11;;;;;;;;;;;;;;;24.52;51.93;100787.66;5016350;28;97895;-89
2021/07/15 04:32:40;;;;;;;;;;;;;;;24.67;51.45;100791.63;5009608;28;96642;-88
2021/07/15 04:35:11;;;;;;;;;;;;;;;24.86;50.86;100802.41;5002610;28;96877;-88
2021/07/15 04:37:42;;;;;;;;;;;;;;;24.78;51.20;100794.16;4985800;28;99065;-89
2021/07/15 04:42:54;;;;;;;;;;;;;;;24.22;52.83;100775.13;5006483;28;98814;-88
2021/07/15 04:45:26;;;;;;;;;;;;;;;23.80;54.28;100783.44;5010824;28;96638;-87
2021/07/15 04:50:37;;;;;;;;;;;;;;;24.40;52.72;100795.06;5004147;28;97116;-88
2021/07/15 04:53:06;;;;;;;;;;;;;;;24.19;53.73;100794.31;5006113;28;96731;-89
2021/07/15 04:55:34;;;;;;;;;;;;;;;23.75;54.84;100796.47;5004827;28;96879;-88
2021/07/15 04:58:03;;;;;;;;;;;;;;;24.15;53.82;100788.34;5005660;28;100608;-88
2021/07/15 05:00:30;;;;;;;;;;;;;;;24.13;53.92;100795.69;5007657;28;99238;-88
2021/07/15 05:03:03;;;;;;;;;;;;;;;24.32;53.38;100802.16;5007807;28;96804;-89
2021/07/15 05:05:30;;;;;;;;;;;;;;;24.65;52.17;100804.41;5004771;28;96800;-88
2021/07/15 05:07:58;;;;;;;;;;;;;;;24.90;51.65;100800.28;5001161;28;98297;-88
2021/07/15 05:10:26;;;;;;;;;;;;;;;25.05;51.14;100806.09;4995534;28;96642;-89
2021/07/15 05:12:54;;;;;;;;;;;;;;;25.21;50.60;100798.22;4993850;28;96939;-89
2021/07/15 05:15:30;;;;;;;;;;;;;;;25.17;50.30;100804.94;5012626;28;96648;-89
2021/07/15 05:17:57;;;;;;;;;;;;;;;25.08;50.25;100806.66;5012894;28;101571;-87
2021/07/15 05:20:23;;;;;;;;;;;;;;;25.16;49.86;100808.63;5012815;28;99323;-88
2021/07/15 05:22:53;;;;;;;;;;;;;;;25.03;50.34;100817.06;5007246;28;96825;-88
2021/07/15 05:25:26;;;;;;;;;;;;;;;25.28;50.10;100812.84;4994987;28;97006;-89
2021/07/15 05:27:52;;;;;;;;;;;;;;;25.47;49.18;100801.97;5011201;28;100162;-86
2021/07/15 05:30:19;;;;;;;;;;;;;;;25.71;48.13;100804.19;5010725;28;99698;-87
2021/07/15 05:32:46;;;;;;;;;;;;;;;25.70;48.09;100802.47;5009824;28;96814;-88
2021/07/15 05:37:56;;;;;;;;;;;;;;;24.98;49.67;100817.50;5008122;28;98912;-87
2021/07/15 05:40:25;;;;;;;;;;;;;;;25.39;48.55;100828.94;4991681;28;96750;-90
2021/07/15 05:42:55;;;;;;;;;;;;;;;25.57;47.91;100834.41;4992033;28;96656;-89
2021/07/15 05:45:22;;;;;;;;;;;;;;;25.67;47.34;100829.81;5009045;28;96568;-87
2021/07/15 05:47:48;;;;;;;;;;;;;;;25.48;47.83;100821.75;5009204;28;96845;-88
2021/07/15 05:50:15;;;;;;;;;;;;;;;25.69;47.59;100827.81;5029041;22;98112;-88
2021/07/15 05:52:50;;;;;;;;;;;;;;;25.87;47.11;100815.19;5049322;27;96573;-88
2021/07/15 05:55:18;;;;;;;;;;;;;;;25.62;47.67;100818.59;5040736;28;96809;-88
2021/07/15 05:57:54;;;;;;;;;;;;;;;25.55;47.43;100821.00;5045825;28;99497;-90
2021/07/15 06:00:24;;;;;;;;;;;;;;;25.67;47.44;100830.66;5029470;28;96705;-88
2021/07/15 06:02:52;;;;;;;;;;;;;;;26.07;46.57;100822.19;5039858;28;96588;-88
2021/07/15 06:05:20;;;;;;;;;;;;;;;26.27;45.74;100830.22;5048727;28;97197;-88
2021/07/15 06:07:50;;;;;;;;;;;;;;;26.23;45.92;100823.38;5032205;28;98665;-88
2021/07/15 06:13:00;;;;;;;;;;;;;;;26.51;45.46;100809.66;5049992;28;96741;-90
2021/07/15 06:15:31;;;;;;;;;;;;;;;26.78;44.52;100805.97;5029244;28;96838;-89
2021/07/15 06:18:01;;;;;;;;;;;;;;;27.24;43.50;100807.50;5055220;27;99910;-88
2021/07/15 06:20:30;;;;;;;;;;;;;;;26.77;44.13;100817.00;5053213;27;96821;-87
2021/07/15 06:22:58;;;;;;;;;;;;;;;26.09;45.77;100812.06;5047502;28;96833;-88
2021/07/15 06:25:25;;;;;;;;;;;;;;;25.80;46.95;100814.94;5046777;28;96850;-88
2021/07/15 06:27:52;;;;;;;;;;;;;;;26.24;45.85;100817.84;5049969;27;100092;-87
2021/07/15 06:33:08;;;;;;;;;;;;;;;26.25;45.14;100824.13;5048709;27;96782;-89
2021/07/15 06:35:40;;;;;;;;;;;;;;;25.88;46.09;100821.44;5052604;27;96843;-90
2021/07/15 06:38:08;;;;;;;;;;;;;;;26.27;45.42;100817.53;5049573;27;99062;-88
2021/07/15 06:40:39;;;;;;;;;;;;;;;25.95;45.91;100823.41;5040640;28;98925;-91
2021/07/15 06:43:07;;;;;;;;;;;;;;;26.95;43.71;100818.69;5048705;28;96753;-87
2021/07/15 06:45:36;;;;;;;;;;;;;;;26.99;43.14;100819.22;5041994;28;96771;-87
2021/07/15 06:48:07;;;;;;;;;;;;;;;27.12;43.25;100830.50;5046291;27;98101;-86
2021/07/15 06:50:35;;;;;;;;;;;;;;;27.07;43.09;100831.97;5049646;27;98933;-87
2021/07/15 06:55:43;;;;;;;;;;;;;;;27.08;42.99;100833.69;5048469;27;96673;-86
2021/07/15 06:58:11;;;;;;;;;;;;;;;27.44;41.96;100831.72;5050625;27;98556;-86
2021/07/15 07:00:40;;;;;;;;;;;;;;;27.37;42.28;100839.66;5037551;28;99114;-85
2021/07/15 07:03:12;;;;;;;;;;;;;;;27.39;41.92;100851.19;5027235;28;97160;-86
2021/07/15 07:05:40;;;;;;;;;;;;;;;27.26;42.62;100848.91;5026970;28;96855;-86
2021/07/15 07:10:48;;;;;;;;;;;;;;;27.77;41.16;100844.47;5035967;28;97408;-88
2021/07/15 07:15:56;;;;;;;;;;;;;;;28.22;40.38;100844.16;5051865;27;96752;-85
2021/07/15 07:18:23;;;;;;;;;;;;;;;27.70;41.45;100844.25;5112498;22;99171;-86
2021/07/15 07:20:50;;;;;;;;;;;;;;;27.25;42.40;100844.47;5045629;27;101442;-85
2021/07/15 07:23:28;;;;;;;;;;;;;;;27.72;41.12;100842.25;5040976;28;99025;-88
2021/07/15 07:25:57;;;;;;;;;;;;;;;27.93;40.72;100847.25;5049266;28;96718;-86
2021/07/15 07:28:26;;;;;;;;;;;;;;;28.49;39.70;100843.00;5047527;27;99283;-86
2021/07/15 07:31:00;;;;;;;;;;;;;;;29.19;37.61;100848.84;5041833;28;99447;-86
2021/07/15 07:33:29;;;;;;;;;;;;;;;29.06;37.34;100843.91;5042917;28;96893;-88
2021/07/15 07:35:56;;;;;;;;;;;;;;;29.67;36.33;100846.00;5040474;28;96942;-87
2021/07/15 07:38:23;;;;;;;;;;;;;;;29.49;36.70;100842.66;5050498;28;101460;-87
2021/07/15 07:49:09;;;;;;;;;;;;;;;29.33;36.91;100826.38;5036303;27;97147;-86
2021/07/15 07:51:36;;;;;;;;;;;;;;;29.54;37.11;100829.38;5033649;27;98969;-85
2021/07/15 07:54:02;;;;;;;;;;;;;;;29.43;36.96;100826.19;5041359;28;99467;-85
2021/07/15 07:56:29;;;;;;;;;;;;;;;29.12;37.98;100840.50;5035796;28;97060;-85
2021/07/15 07:58:56;;;;;;;;;;;;;;;29.49;37.69;100837.22;5021236;28;97796;-85
2021/07/15 08:01:23;;;;;;;;;;;;;;;29.59;37.58;100831.59;5037055;28;98578;-84
2021/07/15 08:03:50;;;;;;;;;;;;;;;29.92;37.19;100835.06;5044274;27;98892;-86
2021/07/15 08:09:04;;;;;;;;;;;;;;;29.24;38.41;100832.84;5043117;27;96345;-86
2021/07/15 08:11:31;;;;;;;;;;;;;;;28.63;39.38;100827.91;5045765;27;99425;-84
2021/07/15 08:14:00;;;;;;;;;;;;;;;29.67;37.87;100831.53;5026581;28;98360;-83
2021/07/15 08:16:30;;;;;;;;;;;;;;;29.34;38.34;100840.84;5044315;27;97007;-84
2021/07/15 08:19:00;;;;;;;;;;;;;;;28.97;38.94;100841.38;5045974;27;96336;-84
2021/07/15 08:21:30;;;;;;;;;;;;;;;29.06;39.06;100832.19;5050998;27;99048;-85
2021/07/15 08:24:03;;;;;;;;;;;;;;;28.93;39.24;100819.97;5036905;28;98299;-85
2021/07/15 08:26:29;;;;;;;;;;;;;;;28.41;40.09;100824.00;5036378;28;96977;-85
2021/07/15 08:28:56;;;;;;;;;;;;;;;28.01;41.28;100822.00;5040443;28;96819;-84
2021/07/15 08:31:24;;;;;;;;;;;;;;;28.36;40.53;100826.34;5045368;28;99880;-84
2021/07/15 08:33:53;;;;;;;;;;;;;;;28.90;39.63;100830.31;5036863;28;97828;-86
2021/07/15 08:36:20;;;;;;;;;;;;;;;29.01;39.37;100843.59;5043649;28;96628;-87
2021/07/15 08:38:48;;;;;;;;;;;;;;;28.82;39.51;100833.88;5037840;28;96652;-86
2021/07/15 08:43:57;;;;;;;;;;;;;;;29.21;38.62;100834.00;5032268;28;99610;-85
2021/07/15 08:46:25;;;;;;;;;;;;;;;29.77;37.46;100831.34;5033284;28;96845;-85
2021/07/15 08:48:59;;;;;;;;;;;;;;;29.88;37.03;100822.78;5031775;28;96838;-85
2021/07/15 08:51:29;;;;;;;;;;;;;;;30.37;36.28;100826.97;5037328;28;101568;-86
2021/07/15 08:56:44;;;;;;;;;;;;;;;29.20;38.47;100835.06;5037977;28;96755;-86
2021/07/15 08:59:19;;;;;;;;;;;;;;;30.21;36.85;100832.50;5027106;28;96636;-83
2021/07/15 09:01:50;;;;;;;;;;;;;;;30.39;36.17;100830.34;5016220;28;100120;-86
2021/07/15 09:04:20;;;;;;;;;;;;;;;29.65;37.58;100842.63;5024640;28;99166;-83
2021/07/15 09:06:48;;;;;;;;;;;;;;;30.48;36.46;100845.63;5024654;28;96356;-82
2021/07/15 09:09:14;;;;;;;;;;;;;;;30.68;35.47;100843.31;5038263;28;96745;-86
2021/07/15 09:11:42;;;;;;;;;;;;;;;30.44;35.36;100849.75;5033581;28;101045;-85
2021/07/15 09:14:15;;;;;;;;;;;;;;;30.39;36.06;100856.78;5034998;28;99617;-86
2021/07/15 09:16:46;;;;;;;;;;;;;;;30.07;36.11;100863.25;5030060;28;96051;-85
2021/07/15 09:19:26;;;;;;;;;;;;;;;29.13;37.97;100863.13;5030779;28;96861;-85
2021/07/15 09:22:09;;;;;;;;;;;;;;;29.46;37.14;100870.25;5022607;28;99942;-83
2021/07/15 09:24:37;;;;;;;;;;;;;;;29.68;37.29;100858.59;5035680;28;98477;-84
2021/07/15 09:30:07;;;;;;;;;;;;;;;30.04;36.53;100872.63;5033707;28;96456;-81
2021/07/15 09:32:34;;;;;;;;;;;;;;;29.68;36.89;100864.06;5019844;28;99333;-87
2021/07/15 09:35:06;;;;;;;;;;;;;;;28.22;40.38;100859.63;5033126;28;99222;-86
2021/07/15 09:37:50;;;;;;;;;;;;;;;29.55;38.05;100858.31;5033579;28;96710;-85
2021/07/15 09:43:18;;;;;;;;;;;;;;;29.92;36.84;100859.59;5022930;28;97317;-85
2021/07/15 09:45:46;;;;;;;;;;;;;;;29.78;37.11;100860.28;5019993;28;99500;-84
2021/07/15 09:48:13;;;;;;;;;;;;;;;29.38;37.77;100863.97;5029138;28;96807;-86
2021/07/15 09:50:42;;;;;;;;;;;;;;;29.55;37.42;100869.19;5018444;28;97015;-85
2021/07/15 09:53:20;;;;;;;;;;;;;;;30.60;35.50;100869.78;5017720;28;99093;-88
2021/07/15 09:56:08;;;;;;;;;;;;;;;31.00;35.01;100872.19;5035592;28;97661;-86
2021/07/15 10:03:57;;;;;;;;;;;;;;;31.61;33.76;100865.69;5031379;28;98973;-86
2021/07/15 10:06:32;;;;;;;;;;;;;;;31.36;34.27;100868.81;5016321;28;96479;-88
2021/07/15 10:08:58;;;;;;;;;;;;;;;31.15;34.00;100864.06;5018115;28;96715;-88
2021/07/15 10:11:30;;;;;;;;;;;;;;;31.37;33.66;100855.00;5032503;28;96526;-88
2021/07/15 10:14:04;;;;;;;;;;;;;;;30.94;34.99;100856.56;5030753;28;99200;-89
2021/07/15 10:16:39;;;;;;;;;;;;;;;30.80;34.71;100851.91;5194399;22;100164;-86
2021/07/15 10:19:09;;;;;;;;;;;;;;;31.28;33.67;100847.91;5015965;28;95925;-86
2021/07/15 10:21:37;;;;;;;;;;;;;;;31.00;34.72;100844.91;5012055;28;96079;-86
2021/07/15 10:24:16;;;;;;;;;;;;;;;30.77;34.92;100847.69;5114836;22;100453;-85
2021/07/15 10:26:56;;;;;;;;;;;;;;;30.80;35.38;100854.63;4997471;28;97899;-87
2021/07/15 10:29:27;;;;;;;;;;;;;;;30.94;34.97;100851.09;5020535;28;96632;-87
2021/07/15 10:31:55;;;;;;;;;;;;;;;30.30;36.31;100855.97;5008321;28;96701;-88
2021/07/15 10:34:22;;;;;;;;;;;;;;;30.45;35.67;100856.91;5000742;28;98846;-87
2021/07/15 10:36:52;;;;;;;;;;;;;;;30.59;35.61;100863.47;5013103;28;98983;-82
2021/07/15 10:39:26;;;;;;;;;;;;;;;30.75;35.09;100857.91;4998505;28;96951;-86
2021/07/15 10:42:19;;;;;;;;;;;;;;;30.74;35.01;100860.81;5013235;28;96603;-88
2021/07/15 10:47:32;;;;;;;;;;;;;;;31.44;34.28;100864.09;5009853;28;98735;-86
2021/07/15 10:50:00;;;;;;;;;;;;;;;31.78;33.15;100870.94;5005727;28;96964;-85
2021/07/15 10:52:28;;;;;;;;;;;;;;;31.75;33.33;100869.44;4997895;28;96967;-85
2021/07/15 10:54:57;;;;;;;;;;;;;;;31.12;34.08;100869.91;5004342;28;97069;-84
2021/07/15 10:57:33;;;;;;;;;;;;;;;31.20;34.05;100872.56;5001201;28;99700;-88
2021/07/15 11:00:14;;;;;;;;;;;;;;;31.61;33.78;100865.69;4988219;28;96730;-87
2021/07/15 11:02:56;;;;;;;;;;;;;;;30.80;34.80;100865.53;5007622;28;96878;-85
2021/07/15 11:05:43;;;;;;;;;;;;;;;30.91;34.53;100862.41;5009475;28;97570;-86
2021/07/15 11:08:13;;;;;;;;;;;;;;;31.13;34.57;100861.53;5016842;28;99672;-86
2021/07/15 11:13:29;;;;;;;;;;;;;;;30.54;34.97;100867.78;5010231;28;96744;-87
2021/07/15 11:15:56;;;;;;;;;;;;;;;30.93;34.34;100857.59;5018458;28;99801;-83
2021/07/15 11:18:48;;;;;;;;;;;;;;;30.84;34.58;100851.38;5007344;28;98942;-86
2021/07/15 11:24:52;;;;;;;;;;;;;;;31.45;33.14;100862.22;5008300;28;96885;-88
2021/07/15 11:27:38;;;;;;;;;;;;;;;31.59;33.72;100866.84;5011606;28;99603;-89
2021/07/15 11:30:08;;;;;;;;;;;;;;;31.97;32.92;100867.63;5013969;28;96836;-86
2021/07/15 11:35:25;;;;;;;;;;;;;;;32.08;33.02;100867.16;5011907;28;96819;-90
2021/07/15 11:41:04;;;;;;;;;;;;;;;32.72;31.17;100859.94;5012028;28;98842;-86
2021/07/15 11:43:35;;;;;;;;;;;;;;;33.44;30.68;100859.72;5017405;28;96535;-87
2021/07/15 11:46:34;;;;;;;;;;;;;;;33.33;30.67;100859.44;5000777;28;96825;-85
2021/07/15 11:49:22;;;;;;;;;;;;;;;33.33;30.73;100862.19;5016761;27;96625;-87
2021/07/15 12:03:25;;;;;;;;;;;;;;;32.47;32.11;100853.13;5020891;28;96210;-85
2021/07/15 12:17:00;;;;;;;;;;;;;;;30.85;34.54;100838.56;5003494;28;96977;-87
2021/07/15 12:19:27;;;;;;;;;;;;;;;31.28;33.86;100848.75;5011766;28;96105;-87
2021/07/15 12:22:09;;;;;;;;;;;;;;;31.19;34.02;100849.00;4989699;28;97914;-86
2021/07/15 12:27:20;;;;;;;;;;;;;;;31.93;33.11;100848.03;5003867;28;96834;-85
2021/07/15 12:29:54;;;;;;;;;;;;;;;32.70;31.93;100840.13;5392057;22;97869;-89
2021/07/15 12:34:59;;;;;;;;;;;;;;;32.55;31.49;100825.66;5105227;23;99374;-85
2021/07/15 12:37:29;;;;;;;;;;;;;;;32.52;31.70;100822.44;4976857;28;96945;-88
2021/07/15 12:40:06;;;;;;;;;;;;;;;32.19;32.04;100813.91;4983288;28;95925;-88
2021/07/15 12:45:14;;;;;;;;;;;;;;;32.42;31.71;100815.44;5138865;22;99186;-84
2021/07/15 12:47:47;;;;;;;;;;;;;;;32.49;31.67;100815.50;4985116;28;96343;-88
2021/07/15 12:53:14;;;;;;;;;;;;;;;31.94;32.05;100803.28;4982211;28;96722;-85
2021/07/15 12:55:57;;;;;;;;;;;;;;;32.35;32.14;100802.72;4984819;28;96894;-86
2021/07/15 12:58:36;;;;;;;;;;;;;;;32.56;31.70;100810.09;4983395;28;96390;-88
2021/07/15 13:06:29;;;;;;;;;;;;;;;32.43;32.20;100806.16;4967079;28;96691;-87
2021/07/15 13:09:05;;;;;;;;;;;;;;;31.99;32.50;100806.28;4964618;28;96893;-84
2021/07/15 13:19:51;;;;;;;;;;;;;;;;;;;;;
2021/07/15 13:25:00;;;;;;;;;;;;;;;35.47;27.40;100825.69;4956682;28;98867;-82
2021/07/15 13:27:31;;;;;;;;;;;;;;;35.97;26.50;100817.75;4946145;28;97723;-87
2021/07/15 13:30:11;;;;;;;;;;;;;;;36.70;25.65;100830.03;4961410;28;97024;-87
2021/07/15 13:32:37;;;;;;;;;;;;;;;37.37;24.44;100835.81;4961818;28;96750;-87
2021/07/15 13:35:21;;;;;;;;;;;;;;;36.80;25.05;100826.78;4958279;28;96944;-88
2021/07/15 13:37:50;;;;;;;;;;;;;;;35.92;25.80;100828.53;4957758;28;98041;-88
2021/07/15 14:02:45;;;;;;;;;;;;;;;36.20;25.81;100803.47;5978941;22;4551064;-80
2021/07/15 14:21:30;;;;;;;;;;;;;;;33.19;29.67;100801.00;6146746;22;97414;-87
2021/07/15 14:24:23;;;;;;;;;;;;;;;34.08;28.38;100803.78;6154759;22;96564;-82
2021/07/15 14:26:52;;;;;;;;;;;;;;;34.71;27.85;100805.25;6150124;23;96760;-87
2021/07/15 14:29:23;;;;;;;;;;;;;;;34.38;30.00;100819.72;6148631;23;97125;-88
2021/07/15 14:31:50;;;;;;;;;;;;;;;33.26;32.41;100842.09;6124313;23;97591;-88
2021/07/15 14:34:33;;;;;;;;;;;;;;;31.67;38.33;100859.47;6152928;22;96520;-87
2021/07/15 14:40:14;;;;;;;;;;;;;;;28.68;55.67;100886.22;6155957;22;97677;-88
2021/07/15 14:42:43;;;;;;;;;;;;;;;28.73;55.19;100882.97;6156581;22;99811;-88
2021/07/15 14:45:11;;;;;;;;;;;;;;;28.93;54.91;100873.50;6160891;22;95884;-83
2021/07/15 14:47:38;;;;;;;;;;;;;;;29.58;53.96;100870.72;6133928;23;96492;-85
2021/07/15 14:50:05;;;;;;;;;;;;;;;29.80;54.08;100869.16;6154132;23;101131;-84
2021/07/15 14:52:31;;;;;;;;;;;;;;;29.71;51.79;100866.44;6155933;23;97992;-85
2021/07/15 14:55:00;;;;;;;;;;;;;;;29.63;53.09;100869.19;6157230;23;96696;-85
2021/07/15 14:57:28;;;;;;;;;;;;;;;29.65;51.09;100888.06;6161567;22;96032;-86
2021/07/15 14:59:57;;;;;;;;;;;;;;;29.99;50.78;100890.56;6160613;22;96793;-89
2021/07/15 15:02:24;;;;;;;;;;;;;;;29.11;54.09;100890.50;6154667;23;98945;-86
2021/07/15 15:05:01;;;;;;;;;;;;;;;29.27;55.25;100882.34;6153265;22;96924;-83
2021/07/15 15:07:28;;;;;;;;;;;;;;;29.26;53.56;100879.78;6148750;23;96504;-87
2021/07/15 15:12:35;;;;;;;;;;;;;;;28.97;51.43;100879.44;6141802;23;98438;-86
2021/07/15 15:15:05;;;;;;;;;;;;;;;29.33;53.81;100886.25;6149761;23;96486;-85
2021/07/15 15:17:35;;;;;;;;;;;;;;;29.46;54.18;100886.59;6147337;23;96549;-85
2021/07/15 15:20:02;;;;;;;;;;;;;;;29.57;50.21;100882.63;6138934;23;98125;-83
2021/07/15 15:28:15;;;;;;;;;;;;;;;29.53;48.98;100865.81;6143969;23;96551;-86
2021/07/15 15:30:45;;;;;;;;;;;;;;;29.73;50.35;100858.91;6146546;23;98916;-86
2021/07/15 15:33:12;;;;;;;;;;;;;;;29.93;50.43;100856.66;6146212;23;100038;-84
2021/07/15 15:35:39;;;;;;;;;;;;;;;29.82;51.93;100853.44;6146335;23;96609;-85
2021/07/15 15:38:09;;;;;;;;;;;;;;;29.63;51.92;100855.56;6148522;23;96983;-82
2021/07/15 15:40:38;;;;;;;;;;;;;;;29.12;52.10;100851.41;6147328;23;99862;-83
2021/07/15 15:43:05;;;;;;;;;;;;;;;29.17;50.71;100856.31;6146402;23;97921;-84
2021/07/15 15:45:32;;;;;;;;;;;;;;;29.64;50.24;100849.09;6151850;23;96517;-85
2021/07/15 15:48:03;;;;;;;;;;;;;;;29.60;51.45;100839.56;6154380;22;95947;-88
2021/07/15 15:50:30;;;;;;;;;;;;;;;29.66;51.65;100841.63;6152337;22;99203;-86
2021/07/15 15:52:58;;;;;;;;;;;;;;;29.89;53.29;100846.28;6146113;23;99412;-85
2021/07/15 15:55:25;;;;;;;;;;;;;;;30.24;51.42;100836.78;6118484;23;96674;-84
2021/07/15 15:57:53;;;;;;;;;;;;;;;30.54;51.56;100837.78;6144702;23;96594;-85
2021/07/15 16:00:21;;;;;;;;;;;;;;;30.84;50.97;100840.47;6147301;23;97639;-83
2021/07/15 16:02:48;;;;;;;;;;;;;;;31.41;48.97;100839.94;6147108;23;98799;-85